createdAt,value
2023-05-01T00:00:53.220Z,38.04
2023-05-01T00:03:20.403Z,38.06
2023-05-01T00:05:47.779Z,38.04
2023-05-01T00:08:15.426Z,37.98
2023-05-01T00:10:42.468Z,37.80
2023-05-01T00:13:09.598Z,37.70
2023-05-01T00:15:36.910Z,37.52
2023-05-01T00:18:03.854Z,37.50
2023-05-01T00:20:31.508Z,37.43
2023-05-01T00:22:58.434Z,37.73
2023-05-01T00:25:25.356Z,37.48
2023-05-01T00:27:52.124Z,37.71
2023-05-01T00:30:18.899Z,37.45
2023-05-01T00:32:45.939Z,37.36
2023-05-01T00:35:13.006Z,37.32
2023-05-01T00:37:39.924Z,37.38
2023-05-01T00:40:08.479Z,37.35
2023-05-01T00:42:36.702Z,37.27
2023-05-01T00:45:03.793Z,37.33
2023-05-01T00:47:31.019Z,37.13
2023-05-01T00:49:58.162Z,37.48
2023-05-01T00:52:25.580Z,37.48
2023-05-01T00:54:52.762Z,37.59
2023-05-01T00:57:20.234Z,37.84
2023-05-01T00:59:47.778Z,37.79
2023-05-01T01:02:15.126Z,38.23
2023-05-01T01:04:44.445Z,38.61
2023-05-01T01:07:31.945Z,38.43
2023-05-01T01:10:11.037Z,38.65
2023-05-01T01:13:03.974Z,38.99
2023-05-01T01:15:50.570Z,39.38
2023-05-01T01:18:25.164Z,39.31
2023-05-01T01:20:56.173Z,39.76
2023-05-01T01:23:38.789Z,40.34
2023-05-01T01:26:24.610Z,40.20
2023-05-01T01:29:22.505Z,40.39
2023-05-01T01:31:49.269Z,40.44
2023-05-01T01:34:27.280Z,40.83
2023-05-01T01:37:02.159Z,40.48
2023-05-01T01:39:30.337Z,40.67
2023-05-01T01:44:43.894Z,43.87
2023-05-01T01:47:12.281Z,41.89
2023-05-01T01:49:42.805Z,42.73
2023-05-01T01:52:10.877Z,42.91
2023-05-01T01:54:39.492Z,42.89
2023-05-01T01:57:07.656Z,42.66
2023-05-01T01:59:35.491Z,42.27
2023-05-01T02:02:03.572Z,43.13
2023-05-01T02:04:30.917Z,42.59
2023-05-01T02:06:58.504Z,42.94
2023-05-01T02:09:27.066Z,43.01
2023-05-01T02:11:55.986Z,43.01
2023-05-01T02:14:24.235Z,43.65
2023-05-01T02:16:51.518Z,43.66
2023-05-01T02:19:19.266Z,44.00
2023-05-01T02:21:46.902Z,44.30
2023-05-01T02:24:14.572Z,44.82
2023-05-01T02:26:48.140Z,44.80
2023-05-01T02:29:15.175Z,45.00
2023-05-01T02:31:42.296Z,45.18
2023-05-01T02:34:09.811Z,44.84
2023-05-01T02:36:36.829Z,44.48
2023-05-01T02:39:04.388Z,45.05
2023-05-01T02:41:31.518Z,44.46
2023-05-01T02:44:04.355Z,44.43
2023-05-01T02:46:37.096Z,44.40
2023-05-01T02:49:04.186Z,44.31
2023-05-01T02:51:34.105Z,44.59
2023-05-01T02:54:01.356Z,44.94
2023-05-01T02:56:29.149Z,45.63
2023-05-01T02:58:57.126Z,45.93
2023-05-01T03:01:24.389Z,46.03
2023-05-01T03:03:51.880Z,46.31
2023-05-01T03:06:19.799Z,46.26
2023-05-01T03:08:48.072Z,46.45
2023-05-01T03:11:15.941Z,46.32
2023-05-01T03:13:43.797Z,46.17
2023-05-01T03:16:11.378Z,47.30
2023-05-01T03:18:38.580Z,47.42
2023-05-01T03:21:05.742Z,47.32
2023-05-01T03:23:33.277Z,47.00
2023-05-01T03:26:00.328Z,47.52
2023-05-01T03:28:27.526Z,47.50
2023-05-01T03:30:54.913Z,47.23
2023-05-01T03:33:22.291Z,48.25
2023-05-01T03:35:49.590Z,47.80
2023-05-01T03:38:16.777Z,47.46
2023-05-01T03:41:02.565Z,48.53
2023-05-01T03:43:47.908Z,49.43
2023-05-01T03:46:28.669Z,48.49
2023-05-01T03:48:55.998Z,49.07
2023-05-01T03:51:23.544Z,48.72
2023-05-01T03:53:52.431Z,48.65
2023-05-01T03:56:20.194Z,49.19
2023-05-01T03:58:47.660Z,49.50
2023-05-01T04:01:15.421Z,48.05
2023-05-01T04:03:44.275Z,48.56
2023-05-01T04:06:11.718Z,48.91
2023-05-01T04:08:39.079Z,48.97
2023-05-01T04:11:06.951Z,48.31
2023-05-01T04:13:33.922Z,48.37
2023-05-01T04:16:02.392Z,49.83
2023-05-01T04:18:29.457Z,48.51
2023-05-01T04:20:59.229Z,48.27
2023-05-01T04:23:26.753Z,47.85
2023-05-01T04:25:55.216Z,47.31
2023-05-01T04:28:22.443Z,47.81
2023-05-01T04:30:49.549Z,47.05
2023-05-01T04:33:16.904Z,46.71
2023-05-01T04:35:44.230Z,46.45
2023-05-01T04:38:11.842Z,46.51
2023-05-01T04:40:39.639Z,46.14
2023-05-01T04:43:06.612Z,45.81
2023-05-01T04:45:33.757Z,45.42
2023-05-01T04:48:01.873Z,45.20
2023-05-01T04:50:29.061Z,44.86
2023-05-01T04:52:56.625Z,44.35
2023-05-01T04:55:23.935Z,44.09
2023-05-01T04:58:11.591Z,43.58
2023-05-01T05:00:39.465Z,43.43
2023-05-01T05:03:08.306Z,42.94
2023-05-01T05:05:35.656Z,42.82
2023-05-01T05:08:04.451Z,42.71
2023-05-01T05:10:36.470Z,42.13
2023-05-01T05:13:21.811Z,42.08
2023-05-01T05:15:54.966Z,41.87
2023-05-01T05:18:23.242Z,41.54
2023-05-01T05:20:51.175Z,41.22
2023-05-01T05:23:18.420Z,40.98
2023-05-01T05:25:45.670Z,40.73
2023-05-01T05:28:13.533Z,40.76
2023-05-01T05:30:40.868Z,40.98
2023-05-01T05:33:09.155Z,40.50
2023-05-01T05:35:36.734Z,40.18
2023-05-01T05:38:04.472Z,39.79
2023-05-01T05:40:33.671Z,39.81
2023-05-01T05:43:01.270Z,38.88
2023-05-01T05:45:29.493Z,39.31
2023-05-01T05:47:57.422Z,39.42
2023-05-01T05:50:25.570Z,38.95
2023-05-01T05:52:52.708Z,39.15
2023-05-01T05:55:19.874Z,39.21
2023-05-01T05:57:59.440Z,38.75
2023-05-01T06:00:26.793Z,38.69
2023-05-01T06:02:54.427Z,37.99
2023-05-01T06:05:22.152Z,37.81
2023-05-01T06:07:49.432Z,37.75
2023-05-01T06:10:17.266Z,37.64
2023-05-01T06:12:51.875Z,37.48
2023-05-01T06:15:25.200Z,36.55
2023-05-01T06:17:54.055Z,35.31
2023-05-01T06:20:21.326Z,36.11
2023-05-01T06:22:49.294Z,35.35
2023-05-01T06:25:21.895Z,35.66
2023-05-01T06:27:52.893Z,35.66
2023-05-01T06:30:22.148Z,34.24
2023-05-01T06:32:50.645Z,34.32
2023-05-01T06:35:17.982Z,33.24
2023-05-01T06:37:45.081Z,33.87
2023-05-01T06:40:12.428Z,33.47
2023-05-01T06:42:39.922Z,33.89
2023-05-01T06:45:08.160Z,32.79
2023-05-01T06:47:35.312Z,30.57
2023-05-01T06:50:05.265Z,31.97
2023-05-01T06:52:33.812Z,32.20
2023-05-01T06:55:01.505Z,32.25
2023-05-01T06:57:28.854Z,30.46
2023-05-01T06:59:56.215Z,31.01
2023-05-01T07:02:23.594Z,30.76
2023-05-01T07:04:51.097Z,30.14
2023-05-01T07:07:18.177Z,30.79
2023-05-01T07:09:45.485Z,29.38
2023-05-01T07:12:12.617Z,28.60
2023-05-01T07:14:41.743Z,29.37
2023-05-01T07:17:09.464Z,28.45
2023-05-01T07:19:36.604Z,29.00
2023-05-01T07:22:05.099Z,27.76
2023-05-01T07:24:32.286Z,28.91
2023-05-01T07:27:00.236Z,28.95
2023-05-01T07:29:27.346Z,28.84
2023-05-01T07:31:54.754Z,28.10
2023-05-01T07:34:22.082Z,28.54
2023-05-01T07:36:49.309Z,28.27
2023-05-01T07:39:17.879Z,28.78
2023-05-01T07:41:45.222Z,28.70
2023-05-01T07:44:12.352Z,28.38
2023-05-01T07:46:39.607Z,28.12
2023-05-01T07:49:06.751Z,28.23
2023-05-01T07:51:33.816Z,28.07
2023-05-01T07:54:04.780Z,28.40
2023-05-01T07:56:32.136Z,27.59
2023-05-01T07:58:59.412Z,28.08
2023-05-01T08:01:26.640Z,27.95
2023-05-01T08:03:53.913Z,27.03
2023-05-01T08:06:21.243Z,27.64
2023-05-01T08:08:48.550Z,27.25
2023-05-01T08:11:16.736Z,27.29
2023-05-01T08:13:43.822Z,27.30
2023-05-01T08:16:11.035Z,26.85
2023-05-01T08:18:38.233Z,26.57
2023-05-01T08:21:05.564Z,26.70
2023-05-01T08:23:33.185Z,26.74
2023-05-01T08:26:00.567Z,26.07
2023-05-01T08:28:27.600Z,25.90
2023-05-01T08:30:54.697Z,26.60
2023-05-01T08:33:21.969Z,25.82
2023-05-01T08:35:49.257Z,25.91
2023-05-01T08:38:16.558Z,25.71
2023-05-01T08:40:47.630Z,24.72
2023-05-01T08:43:14.568Z,25.33
2023-05-01T08:45:41.578Z,25.65
2023-05-01T08:48:10.619Z,25.58
2023-05-01T08:50:37.820Z,24.95
2023-05-01T08:53:05.583Z,25.15
2023-05-01T08:55:32.796Z,24.84
2023-05-01T08:58:00.111Z,24.77
2023-05-01T09:00:28.040Z,24.61
2023-05-01T09:02:55.469Z,24.94
2023-05-01T09:05:22.671Z,25.29
2023-05-01T09:07:49.906Z,24.82
2023-05-01T09:10:18.496Z,24.45
2023-05-01T09:12:48.156Z,24.79
2023-05-01T09:15:15.568Z,24.36
2023-05-01T09:17:42.872Z,24.20
2023-05-01T09:20:10.510Z,24.28
2023-05-01T09:22:37.707Z,24.08
2023-05-01T09:25:05.435Z,24.19
2023-05-01T09:27:35.246Z,23.37
2023-05-01T09:30:02.366Z,23.36
2023-05-01T09:32:30.010Z,23.33
2023-05-01T09:35:10.719Z,22.78
2023-05-01T09:37:38.183Z,23.41
2023-05-01T09:40:12.315Z,23.58
2023-05-01T09:42:40.159Z,22.84
2023-05-01T09:45:16.320Z,22.75
2023-05-01T09:47:46.589Z,23.08
2023-05-01T09:50:29.974Z,23.08
2023-05-01T09:52:57.296Z,23.10
2023-05-01T09:55:25.920Z,23.35
2023-05-01T09:57:53.498Z,22.70
2023-05-01T10:00:22.423Z,22.16
2023-05-01T10:02:50.384Z,22.45
2023-05-01T10:05:18.725Z,22.60
2023-05-01T10:08:02.600Z,22.38
2023-05-01T10:10:30.003Z,21.99
2023-05-01T10:12:57.306Z,22.50
2023-05-01T10:15:27.009Z,22.86
2023-05-01T10:17:55.149Z,22.97
2023-05-01T10:20:23.207Z,22.33
2023-05-01T10:22:50.799Z,22.06
2023-05-01T10:25:18.208Z,22.01
2023-05-01T10:27:45.628Z,22.45
2023-05-01T10:30:13.049Z,22.24
2023-05-01T10:32:41.637Z,22.51
2023-05-01T10:35:11.898Z,22.14
2023-05-01T10:37:39.098Z,22.57
2023-05-01T10:40:43.744Z,22.44
2023-05-01T10:43:28.781Z,22.32
2023-05-01T10:46:22.086Z,22.21
2023-05-01T10:48:56.364Z,22.31
2023-05-01T10:51:28.194Z,22.78
2023-05-01T10:54:14.255Z,22.61
2023-05-01T10:56:43.542Z,22.65
2023-05-01T10:59:11.765Z,22.59
2023-05-01T11:01:40.196Z,22.62
2023-05-01T11:04:08.554Z,22.28
2023-05-01T11:06:36.775Z,21.98
2023-05-01T11:09:39.568Z,22.20
2023-05-01T11:12:07.274Z,22.07
2023-05-01T11:15:08.953Z,22.26
2023-05-01T11:17:43.281Z,22.30
2023-05-01T11:20:11.958Z,21.62
2023-05-01T11:22:40.913Z,21.34
2023-05-01T11:25:27.971Z,21.26
2023-05-01T11:27:56.870Z,21.41
2023-05-01T11:30:24.101Z,20.40
2023-05-01T11:32:51.637Z,20.53
2023-05-01T11:35:23.181Z,21.01
2023-05-01T11:37:51.507Z,20.57
2023-05-01T11:40:22.971Z,21.09
2023-05-01T11:42:51.256Z,21.10
2023-05-01T11:45:19.725Z,21.17
2023-05-01T11:47:47.200Z,20.71
2023-05-01T11:50:14.442Z,20.71
2023-05-01T11:52:46.285Z,20.65
2023-05-01T11:55:13.470Z,20.91
2023-05-01T11:57:51.076Z,20.51
2023-05-01T12:00:28.605Z,20.81
2023-05-01T12:03:00.524Z,20.77
2023-05-01T12:05:28.786Z,20.45
2023-05-01T12:08:18.950Z,20.07
2023-05-01T12:10:58.532Z,20.24
2023-05-01T12:13:26.377Z,20.33
2023-05-01T12:15:54.668Z,20.39
2023-05-01T12:18:22.939Z,20.36
2023-05-01T12:20:52.340Z,20.57
2023-05-01T12:23:20.994Z,20.50
2023-05-01T12:25:48.241Z,20.05
2023-05-01T12:28:17.351Z,20.20
2023-05-01T12:30:46.047Z,20.25
2023-05-01T12:33:13.925Z,20.41
2023-05-01T12:35:41.363Z,20.80
2023-05-01T12:38:19.217Z,20.69
2023-05-01T12:40:55.921Z,20.52
2023-05-01T12:43:30.294Z,19.78
2023-05-01T12:45:57.589Z,20.34
2023-05-01T12:48:24.933Z,20.41
2023-05-01T12:50:55.034Z,20.61
2023-05-01T12:53:23.585Z,20.69
2023-05-01T12:55:53.115Z,20.58
2023-05-01T12:58:20.307Z,19.82
2023-05-01T13:00:54.902Z,19.74
2023-05-01T13:03:26.951Z,20.29
2023-05-01T13:05:55.168Z,20.25
2023-05-01T13:08:29.626Z,20.14
2023-05-01T13:10:58.185Z,19.95
2023-05-01T13:13:26.928Z,20.53
2023-05-01T13:15:54.304Z,20.18
2023-05-01T13:18:21.658Z,20.09
2023-05-01T13:20:48.982Z,20.24
2023-05-01T13:23:16.115Z,20.21
2023-05-01T13:25:43.440Z,19.82
2023-05-01T13:28:11.905Z,19.81
2023-05-01T13:30:39.600Z,20.10
2023-05-01T13:33:08.009Z,20.13
2023-05-01T13:35:35.978Z,19.81
2023-05-01T13:38:03.286Z,20.22
2023-05-01T13:40:30.525Z,20.22
2023-05-01T13:42:57.541Z,20.42
2023-05-01T13:45:24.680Z,20.14
2023-05-01T13:47:52.189Z,20.06
2023-05-01T13:50:19.838Z,19.36
2023-05-01T13:52:47.830Z,19.72
2023-05-01T13:55:15.003Z,19.66
2023-05-01T13:57:42.615Z,19.45
2023-05-01T14:00:49.675Z,20.85
2023-05-01T14:03:18.976Z,19.47
2023-05-01T14:05:46.210Z,19.38
2023-05-01T14:08:13.346Z,19.21
2023-05-01T14:10:40.440Z,18.86
2023-05-01T14:13:07.912Z,19.25
2023-05-01T14:15:35.589Z,19.34
2023-05-01T14:18:06.953Z,19.49
2023-05-01T14:20:34.166Z,19.62
2023-05-01T14:23:01.502Z,19.55
2023-05-01T14:25:35.536Z,19.33
2023-05-01T14:28:06.120Z,19.42
2023-05-01T14:30:38.610Z,19.55
2023-05-01T14:33:11.330Z,19.85
2023-05-01T14:35:48.673Z,20.48
2023-05-01T14:38:18.107Z,20.86
2023-05-01T14:40:45.533Z,20.98
2023-05-01T14:43:22.335Z,21.52
2023-05-01T14:45:50.309Z,20.84
2023-05-01T14:48:21.253Z,20.87
2023-05-01T14:50:48.508Z,20.66
2023-05-01T14:53:15.921Z,20.84
2023-05-01T14:55:43.048Z,20.61
2023-05-01T14:58:10.258Z,20.91
2023-05-01T15:00:37.812Z,20.29
2023-05-01T15:03:04.984Z,20.57
2023-05-01T15:05:32.505Z,20.70
2023-05-01T15:08:00.776Z,20.97
2023-05-01T15:10:29.034Z,20.64
2023-05-01T15:12:56.291Z,20.75
2023-05-01T15:15:23.448Z,20.48
2023-05-01T15:17:52.954Z,19.71
2023-05-01T15:20:20.264Z,19.78
2023-05-01T15:22:47.385Z,19.79
2023-05-01T15:25:15.002Z,18.83
2023-05-01T15:27:43.884Z,18.52
2023-05-01T15:30:12.084Z,18.50
2023-05-01T15:32:39.235Z,18.21
2023-05-01T15:35:06.528Z,17.58
2023-05-01T15:37:33.784Z,17.44
2023-05-01T15:40:01.310Z,17.74
2023-05-01T15:42:28.444Z,17.81
2023-05-01T15:44:55.494Z,17.34
2023-05-01T15:47:22.580Z,17.63
2023-05-01T15:49:50.134Z,17.87
2023-05-01T15:52:17.388Z,18.11
2023-05-01T15:54:46.897Z,18.59
2023-05-01T15:57:14.453Z,18.49
2023-05-01T15:59:41.577Z,18.96
2023-05-01T16:02:09.051Z,19.73
2023-05-01T16:04:36.419Z,19.95
2023-05-01T16:07:03.602Z,19.66
2023-05-01T16:09:32.028Z,20.41
2023-05-01T16:12:00.028Z,20.66
2023-05-01T16:14:27.309Z,20.92
2023-05-01T16:16:54.702Z,21.06
2023-05-01T16:19:21.989Z,21.19
2023-05-01T16:21:49.144Z,21.47
2023-05-01T16:24:16.220Z,21.65
2023-05-01T16:26:43.756Z,21.87
2023-05-01T16:29:11.028Z,21.88
2023-05-01T16:31:39.594Z,22.12
2023-05-01T16:34:07.672Z,22.34
2023-05-01T16:36:36.334Z,22.47
2023-05-01T16:39:04.281Z,22.20
2023-05-01T16:41:31.866Z,21.71
2023-05-01T16:43:59.656Z,21.78
2023-05-01T16:46:26.730Z,21.90
2023-05-01T16:48:53.860Z,21.87
2023-05-01T16:51:21.165Z,22.25
2023-05-01T16:53:48.289Z,22.44
2023-05-01T16:56:16.003Z,22.48
2023-05-01T16:58:44.077Z,23.56
2023-05-01T17:01:11.449Z,23.30
2023-05-01T17:03:38.899Z,23.79
2023-05-01T17:06:06.299Z,24.09
2023-05-01T17:08:33.405Z,24.19
2023-05-01T17:11:00.916Z,24.62
2023-05-01T17:13:28.092Z,24.99
2023-05-01T17:15:55.291Z,24.73
2023-05-01T17:18:22.551Z,24.81
2023-05-01T17:20:49.591Z,24.62
2023-05-01T17:23:17.333Z,25.14
2023-05-01T17:25:45.052Z,25.20
2023-05-01T17:28:12.334Z,25.16
2023-05-01T17:30:39.489Z,25.56
2023-05-01T17:33:06.946Z,25.67
2023-05-01T17:35:34.241Z,26.15
2023-05-01T17:38:01.322Z,25.93
2023-05-01T17:40:28.587Z,26.13
2023-05-01T17:42:55.763Z,26.45
2023-05-01T17:45:22.897Z,26.27
2023-05-01T17:47:50.100Z,26.56
2023-05-01T17:50:18.281Z,27.66
2023-05-01T17:52:45.511Z,27.31
2023-05-01T17:55:14.943Z,27.25
2023-05-01T17:57:44.463Z,27.64
2023-05-01T18:00:12.467Z,28.95
2023-05-01T18:02:39.920Z,30.26
2023-05-01T18:05:07.757Z,31.07
2023-05-01T18:07:34.991Z,29.91
2023-05-01T18:10:02.396Z,30.69
2023-05-01T18:12:30.213Z,30.39
2023-05-01T18:14:57.304Z,29.86
2023-05-01T18:17:25.395Z,30.06
2023-05-01T18:19:52.672Z,30.58
2023-05-01T18:22:20.374Z,31.54
2023-05-01T18:24:47.824Z,31.24
2023-05-01T18:27:14.950Z,30.85
2023-05-01T18:29:42.242Z,31.03
2023-05-01T18:32:12.785Z,31.44
2023-05-01T18:34:41.008Z,31.89
2023-05-01T18:37:08.452Z,31.63
2023-05-01T18:39:35.681Z,31.92
2023-05-01T18:42:04.020Z,31.16
2023-05-01T18:44:31.597Z,31.53
2023-05-01T18:46:58.846Z,31.78
2023-05-01T18:49:26.142Z,31.85
2023-05-01T18:51:53.287Z,32.90
2023-05-01T18:54:20.565Z,33.06
2023-05-01T18:56:47.778Z,33.25
2023-05-01T18:59:14.742Z,32.91
2023-05-01T19:01:41.997Z,32.66
2023-05-01T19:04:09.180Z,32.51
2023-05-01T19:06:36.451Z,31.86
2023-05-01T19:09:03.812Z,32.24
2023-05-01T19:11:32.001Z,32.80
2023-05-01T19:13:59.083Z,33.07
2023-05-01T19:16:26.483Z,33.48
2023-05-01T19:18:53.820Z,33.64
2023-05-01T19:21:21.408Z,33.94
2023-05-01T19:23:49.347Z,32.97
2023-05-01T19:26:16.692Z,32.92
2023-05-01T19:28:43.823Z,33.36
2023-05-01T19:31:12.428Z,33.25
2023-05-01T19:33:41.390Z,33.41
2023-05-01T19:36:08.416Z,33.58
2023-05-01T19:38:35.815Z,33.83
2023-05-01T19:41:03.285Z,33.65
2023-05-01T19:43:30.563Z,33.76
2023-05-01T19:45:57.852Z,34.06
2023-05-01T19:48:25.001Z,31.79
2023-05-01T19:50:52.235Z,31.12
2023-05-01T19:53:19.378Z,30.86
2023-05-01T19:55:47.995Z,30.90
2023-05-01T19:58:15.810Z,30.61
2023-05-01T20:00:42.966Z,30.63
2023-05-01T20:03:10.991Z,30.44
2023-05-01T20:05:38.215Z,30.41
2023-05-01T20:08:06.125Z,30.23
2023-05-01T20:10:33.439Z,30.22
2023-05-01T20:13:00.779Z,30.33
2023-05-01T20:15:28.007Z,29.83
2023-05-01T20:17:55.189Z,30.40
2023-05-01T20:20:22.434Z,30.30
2023-05-01T20:22:52.458Z,30.36
2023-05-01T20:25:19.531Z,30.49
2023-05-01T20:27:46.624Z,30.72
2023-05-01T20:30:13.790Z,30.48
2023-05-01T20:32:44.179Z,30.55
2023-05-01T20:35:11.826Z,30.48
2023-05-01T20:37:38.979Z,30.39
2023-05-01T20:40:07.286Z,30.24
2023-05-01T20:42:34.388Z,30.39
2023-05-01T20:45:01.717Z,30.27
2023-05-01T20:47:29.753Z,30.17
2023-05-01T20:49:57.592Z,30.66
2023-05-01T20:52:24.806Z,31.18
2023-05-01T20:54:51.948Z,31.45
2023-05-01T20:57:19.242Z,31.38
2023-05-01T20:59:48.122Z,31.19
2023-05-01T21:02:16.469Z,31.75
2023-05-01T21:04:43.703Z,31.98
2023-05-01T21:07:10.886Z,32.49
2023-05-01T21:09:38.151Z,32.69
2023-05-01T21:12:06.435Z,32.85
2023-05-01T21:14:33.577Z,33.16
2023-05-01T21:17:00.950Z,32.88
2023-05-01T21:19:28.276Z,32.62
2023-05-01T21:21:55.657Z,32.48
2023-05-01T21:24:24.174Z,32.49
2023-05-01T21:26:54.621Z,32.71
2023-05-01T21:29:21.794Z,33.00
2023-05-01T21:31:49.288Z,33.13
2023-05-01T21:34:17.864Z,33.22
2023-05-01T21:36:45.425Z,33.21
2023-05-01T21:39:12.991Z,32.98
2023-05-01T21:41:40.763Z,32.90
2023-05-01T21:44:07.884Z,33.34
2023-05-01T21:46:36.094Z,33.70
2023-05-01T21:49:03.701Z,33.48
2023-05-01T21:51:32.149Z,33.22
2023-05-01T21:54:02.455Z,33.45
2023-05-01T21:56:29.660Z,33.31
2023-05-01T21:59:01.336Z,33.32
2023-05-01T22:01:28.633Z,33.80
2023-05-01T22:03:56.975Z,33.91
2023-05-01T22:06:24.887Z,33.55
2023-05-01T22:08:52.103Z,33.25
2023-05-01T22:11:20.823Z,33.79
2023-05-01T22:13:48.076Z,33.57
2023-05-01T22:16:15.329Z,33.34
2023-05-01T22:18:42.433Z,33.15
2023-05-01T22:21:09.608Z,33.29
2023-05-01T22:23:36.835Z,33.14
2023-05-01T22:26:03.949Z,33.23
2023-05-01T22:28:31.215Z,33.34
2023-05-01T22:30:59.342Z,33.49
2023-05-01T22:33:26.885Z,33.42
2023-05-01T22:35:54.057Z,33.19
2023-05-01T22:38:21.232Z,33.05
2023-05-01T22:40:48.438Z,32.65
2023-05-01T22:43:15.790Z,32.99
2023-05-01T22:45:43.125Z,33.28
2023-05-01T22:48:10.887Z,33.98
2023-05-01T22:50:38.148Z,34.05
2023-05-01T22:53:05.915Z,34.22
2023-05-01T22:55:33.120Z,33.24
2023-05-01T22:58:00.245Z,33.17
2023-05-01T23:00:27.549Z,33.48
2023-05-01T23:02:54.690Z,33.47
2023-05-01T23:05:21.953Z,33.45
2023-05-01T23:07:48.961Z,33.55
2023-05-01T23:10:16.161Z,33.15
2023-05-01T23:12:44.081Z,32.92
2023-05-01T23:15:11.497Z,33.03
2023-05-01T23:17:38.681Z,33.59
2023-05-01T23:20:09.842Z,33.31
2023-05-01T23:22:40.624Z,33.26
2023-05-01T23:25:08.437Z,33.11
2023-05-01T23:27:40.291Z,33.27
2023-05-01T23:30:08.278Z,33.53
2023-05-01T23:32:35.282Z,34.18
2023-05-01T23:35:11.869Z,34.66
2023-05-01T23:37:39.181Z,34.43
2023-05-01T23:40:07.362Z,33.69
2023-05-01T23:42:34.890Z,33.48
2023-05-01T23:45:01.948Z,33.67
2023-05-01T23:47:29.453Z,33.59
2023-05-01T23:49:56.888Z,33.85
2023-05-01T23:52:24.070Z,34.61
2023-05-01T23:54:51.266Z,34.24
2023-05-01T23:57:18.447Z,33.79
2023-05-01T23:59:45.391Z,33.80
